Time;durP1;ratioP1;P1;durP2;ratioP2;P2;SDS_P1;SDS_P2;PMS_P1;PMS_P2;Temp;Humidity;BMP_temperature;BMP_pressure;BME280_temperature;BME280_humidity;BME280_pressure;Samples;Min_cycle;Max_cycle;Signal;HPM_P1;HPM_P2
2021/04/06 00:04:19;;;;;;;7.87;1.90;;;1.50;99.90;;;;;;6744988;88;20358;-74
2021/04/06 00:14:22;;;;;;;7.25;1.70;;;1.40;99.90;;;;;;6737244;88;20228;-74
2021/04/06 00:24:25;;;;;;;6.57;1.92;;;1.50;99.90;;;;;;6735204;88;20185;-74
2021/04/06 00:34:27;;;;;;;8.60;2.17;;;1.50;99.90;;;;;;6738991;88;20218;-74
2021/04/06 00:44:28;;;;;;;9.57;2.17;;;1.50;99.90;;;;;;6753686;88;20220;-74
2021/04/06 00:54:29;;;;;;;6.28;1.87;;;1.60;99.90;;;;;;6740583;88;20193;-74
2021/04/06 01:04:33;;;;;;;7.80;2.62;;;1.60;99.90;;;;;;6740165;88;20608;-74
2021/04/06 01:14:36;;;;;;;6.07;2.08;;;1.70;99.90;;;;;;6753097;88;20196;-74
2021/04/06 01:24:38;;;;;;;5.95;1.90;;;1.80;99.90;;;;;;6740040;88;20253;-74
2021/04/06 01:34:40;;;;;;;10.20;2.42;;;1.90;99.90;;;;;;6741656;88;20323;-74
2021/04/06 01:44:44;;;;;;;6.05;1.42;;;2.10;99.90;;;;;;6745480;88;20265;-74
2021/04/06 01:54:51;;;;;;;5.93;1.27;;;2.10;99.90;;;;;;6741271;88;20299;-74
2021/04/06 02:04:59;;;;;;;8.35;1.35;;;2.10;99.90;;;;;;6745627;88;20216;-74
2021/04/06 02:15:01;;;;;;;7.97;1.60;;;2.20;99.90;;;;;;6746800;88;20194;-74
2021/04/06 02:25:04;;;;;;;12.63;2.15;;;2.20;99.90;;;;;;6744669;88;20808;-74
2021/04/06 02:35:07;;;;;;;9.77;2.08;;;2.10;99.90;;;;;;6747430;88;20197;-74
2021/04/06 02:45:12;;;;;;;9.05;2.28;;;2.10;99.90;;;;;;6751028;88;20218;-74
2021/04/06 02:55:14;;;;;;;6.22;1.83;;;2.10;99.90;;;;;;6738587;88;20715;-74
2021/04/06 03:05:34;;;;;;;7.87;2.03;;;2.10;99.90;;;;;;6740554;88;20261;-74
2021/04/06 03:15:38;;;;;;;12.02;2.58;;;2.00;99.90;;;;;;6729140;88;20220;-73
2021/04/06 03:25:39;;;;;;;7.18;2.30;;;1.90;99.90;;;;;;6737978;88;20298;-74
2021/04/06 03:35:41;;;;;;;8.35;1.98;;;1.80;99.90;;;;;;6740278;88;20326;-74
2021/04/06 03:46:03;;;;;;;8.18;1.67;;;1.80;99.90;;;;;;6735583;88;20573;-74
2021/04/06 03:56:09;;;;;;;10.32;2.30;;;1.80;99.90;;;;;;6738247;88;20203;-74
2021/04/06 04:06:10;;;;;;;7.57;2.27;;;1.70;99.90;;;;;;6737451;88;20277;-74
2021/04/06 04:16:10;;;;;;;7.90;2.75;;;1.80;99.90;;;;;;6740965;88;20524;-73
2021/04/06 04:26:11;;;;;;;7.82;3.42;;;1.60;99.90;;;;;;6736232;88;20511;-74
2021/04/06 04:36:11;;;;;;;9.13;2.17;;;1.60;99.90;;;;;;6742499;88;20270;-74
2021/04/06 04:46:12;;;;;;;5.97;2.35;;;1.70;99.90;;;;;;6738543;88;20236;-74
2021/04/06 04:56:13;;;;;;;7.75;2.30;;;1.70;99.90;;;;;;6739227;88;20751;-73
2021/04/06 05:06:13;;;;;;;8.85;2.00;;;1.70;99.90;;;;;;6738254;88;20206;-75
2021/04/06 05:16:14;;;;;;;11.18;1.80;;;1.70;99.90;;;;;;6734187;88;20606;-74
2021/04/06 05:26:14;;;;;;;6.87;1.55;;;1.50;99.90;;;;;;6736681;88;20205;-74
2021/04/06 05:36:15;;;;;;;8.13;1.83;;;1.40;99.90;;;;;;6741293;88;20501;-74
2021/04/06 05:46:16;;;;;;;13.75;1.87;;;1.40;99.90;;;;;;6731564;88;20219;-74
2021/04/06 05:56:16;;;;;;;7.57;2.20;;;1.50;99.90;;;;;;6736002;88;20212;-75
2021/04/06 06:06:17;;;;;;;8.43;1.77;;;1.80;99.90;;;;;;6739727;88;20235;-74
2021/04/06 06:16:24;;;;;;;4.80;1.50;;;1.90;99.90;;;;;;6737376;88;20304;-75
2021/04/06 06:26:25;;;;;;;5.78;1.55;;;1.80;99.90;;;;;;6734408;88;20342;-75
2021/04/06 06:36:25;;;;;;;6.00;1.60;;;2.00;99.90;;;;;;6732707;88;20178;-74
2021/04/06 06:46:30;;;;;;;4.55;1.30;;;2.20;99.90;;;;;;6735083;88;20202;-74
2021/04/06 06:56:36;;;;;;;4.68;1.60;;;2.20;99.90;;;;;;6739971;88;20645;-73
2021/04/06 07:06:42;;;;;;;7.85;2.67;;;2.20;99.90;;;;;;6729719;88;20174;-74
2021/04/06 07:16:43;;;;;;;8.18;2.25;;;2.30;99.90;;;;;;6736004;88;20342;-74
2021/04/06 07:26:43;;;;;;;7.03;2.20;;;2.20;99.90;;;;;;6720415;88;20251;-74
2021/04/06 07:36:44;;;;;;;7.72;2.72;;;2.70;99.90;;;;;;6735549;88;20206;-74
2021/04/06 07:46:47;;;;;;;7.47;2.25;;;3.30;99.90;;;;;;6744370;88;20536;-74
2021/04/06 07:56:54;;;;;;;5.50;1.80;;;3.40;99.90;;;;;;6730785;88;20711;-74
2021/04/06 08:06:57;;;;;;;7.95;2.08;;;3.60;99.90;;;;;;6739681;88;20690;-75
2021/04/06 08:17:25;;;;;;;7.65;1.50;;;3.10;99.90;;;;;;6738302;88;20195;-74
2021/04/06 08:27:36;;;;;;;5.60;1.35;;;3.20;99.90;;;;;;6726953;88;20217;-75
2021/04/06 08:37:38;;;;;;;6.55;1.60;;;3.10;99.90;;;;;;6733185;88;20201;-75
2021/04/06 08:47:43;;;;;;;7.12;1.37;;;4.00;99.90;;;;;;6736410;88;20190;-74
2021/04/06 08:57:55;;;;;;;7.15;1.27;;;4.20;99.90;;;;;;6729001;88;20189;-80
2021/04/06 09:07:56;;;;;;;8.68;1.17;;;3.80;99.90;;;;;;6724297;88;20248;-75
2021/04/06 09:18:02;;;;;;;5.50;1.05;;;5.10;99.90;;;;;;6723790;88;20208;-75
2021/04/06 09:28:05;;;;;;;4.33;1.27;;;5.20;99.90;;;;;;6722393;88;20756;-74
2021/04/06 09:38:06;;;;;;;2.83;0.90;;;4.70;99.90;;;;;;6732350;88;20225;-74
2021/04/06 09:48:11;;;;;;;4.35;0.80;;;5.20;99.90;;;;;;6732731;87;20197;-75
2021/04/06 09:58:11;;;;;;;2.97;1.10;;;5.40;99.90;;;;;;6729327;88;20193;-75
2021/04/06 10:08:13;;;;;;;3.80;1.17;;;6.30;99.90;;;;;;6730408;88;20237;-75
2021/04/06 10:18:15;;;;;;;2.67;1.15;;;6.30;99.90;;;;;;6735138;88;20220;-75
2021/04/06 10:28:22;;;;;;;4.18;1.20;;;7.10;99.90;;;;;;6736241;88;20681;-75
2021/04/06 10:38:25;;;;;;;5.68;1.58;;;6.20;99.90;;;;;;6726048;88;20208;-75
2021/04/06 10:48:28;;;;;;;4.95;1.45;;;5.80;99.90;;;;;;6709216;77;20205;-74
2021/04/06 10:58:34;;;;;;;3.92;0.90;;;7.30;99.90;;;;;;6654672;88;20189;-75
2021/04/06 11:08:40;;;;;;;2.80;1.00;;;6.60;99.90;;;;;;6662536;88;20204;-74
2021/04/06 11:18:41;;;;;;;4.03;1.00;;;6.60;99.90;;;;;;6653499;88;20274;-75
2021/04/06 11:28:43;;;;;;;4.32;1.15;;;5.60;99.90;;;;;;6647997;89;20567;-74
2021/04/06 11:38:43;;;;;;;3.25;0.90;;;4.40;99.90;;;;;;6638683;89;20721;-75
2021/04/06 11:48:45;;;;;;;4.15;0.93;;;6.30;99.90;;;;;;6647699;88;20204;-75
2021/04/06 11:58:45;;;;;;;3.53;0.80;;;7.40;98.90;;;;;;6645644;89;20417;-74
2021/04/06 12:08:46;;;;;;;4.45;1.20;;;6.80;98.80;;;;;;6636277;89;20216;-75
2021/04/06 12:18:47;;;;;;;5.87;1.45;;;7.00;98.00;;;;;;6635184;89;20226;-74
2021/04/06 12:28:48;;;;;;;3.55;1.30;;;6.10;99.90;;;;;;6638681;89;20331;-75
2021/04/06 12:38:49;;;;;;;3.53;1.40;;;6.00;99.90;;;;;;6644976;89;20182;-76
2021/04/06 12:48:49;;;;;;;2.42;0.80;;;5.80;99.90;;;;;;6651991;89;20207;-74
2021/04/06 12:58:50;;;;;;;1.50;0.70;;;6.00;99.90;;;;;;6641694;89;20604;-75
2021/04/06 13:08:50;;;;;;;3.42;0.80;;;6.20;99.90;;;;;;6637691;89;20722;-75
2021/04/06 13:18:51;;;;;;;3.75;1.10;;;7.10;99.90;;;;;;6646396;89;20221;-76
2021/04/06 13:28:52;;;;;;;4.07;1.20;;;6.10;99.90;;;;;;6650433;89;20203;-74
2021/04/06 13:38:52;;;;;;;1.40;0.70;;;4.90;99.90;;;;;;6653784;89;20279;-75
2021/04/06 13:48:53;;;;;;;2.87;0.50;;;3.00;99.90;;;;;;6650079;89;20215;-76
2021/04/06 13:58:53;;;;;;;2.47;0.65;;;2.20;99.90;;;;;;6653050;89;20176;-75
2021/04/06 14:08:54;;;;;;;0.88;0.50;;;2.10;99.90;;;;;;6651055;89;20251;-75
2021/04/06 14:18:55;;;;;;;2.03;0.80;;;4.20;99.90;;;;;;6639564;89;20199;-75
2021/04/06 14:28:56;;;;;;;1.75;0.90;;;5.10;99.90;;;;;;6649068;89;20500;-75
2021/04/06 14:38:56;;;;;;;3.15;1.00;;;5.10;99.90;;;;;;6646651;89;20229;-75
2021/04/06 14:48:58;;;;;;;2.45;0.60;;;4.40;99.90;;;;;;6642304;89;20361;-75
2021/04/06 14:58:59;;;;;;;1.30;0.60;;;3.60;99.90;;;;;;6649694;88;20709;-75
2021/04/06 15:09:00;;;;;;;3.55;1.25;;;1.90;99.90;;;;;;6648675;89;20360;-75
2021/04/06 15:19:00;;;;;;;3.47;1.20;;;1.40;99.90;;;;;;6646286;89;20228;-75
2021/04/06 15:29:01;;;;;;;4.03;0.90;;;1.10;99.90;;;;;;6648822;89;20196;-75
2021/04/06 15:39:02;;;;;;;2.70;0.70;;;0.70;99.90;;;;;;6649463;89;20588;-75
2021/04/06 15:49:09;;;;;;;8.88;1.00;;;0.70;99.90;;;;;;6645932;89;21083;-75
2021/04/06 15:59:10;;;;;;;5.35;1.30;;;1.30;99.90;;;;;;6648745;88;20709;-74
2021/04/06 16:09:10;;;;;;;6.55;1.65;;;2.20;99.90;;;;;;6648149;89;20196;-75
2021/04/06 16:19:11;;;;;;;3.47;1.90;;;2.50;99.90;;;;;;6647636;89;20555;-75
2021/04/06 16:29:12;;;;;;;4.55;1.42;;;1.40;99.90;;;;;;6644837;89;20554;-75
2021/04/06 16:39:12;;;;;;;1.73;0.73;;;1.00;99.90;;;;;;6651572;89;20763;-75
2021/04/06 16:49:13;;;;;;;2.80;1.00;;;1.00;99.90;;;;;;6658401;88;20248;-75
2021/04/06 16:59:13;;;;;;;4.90;1.27;;;1.20;99.90;;;;;;6643506;89;20205;-75
2021/04/06 17:09:14;;;;;;;6.30;1.70;;;1.40;99.90;;;;;;6650966;89;20702;-75
2021/04/06 17:19:16;;;;;;;6.87;2.22;;;1.70;99.90;;;;;;6646498;89;20224;-75
2021/04/06 17:29:18;;;;;;;4.57;2.40;;;1.80;99.90;;;;;;6648230;89;20181;-75
2021/04/06 17:39:19;;;;;;;5.50;2.08;;;1.70;99.90;;;;;;6645896;89;20211;-75
2021/04/06 17:49:20;;;;;;;2.50;1.73;;;1.60;99.90;;;;;;6644443;89;20623;-75
2021/04/06 17:59:21;;;;;;;3.97;2.08;;;1.40;99.90;;;;;;6645883;89;20548;-75
2021/04/06 18:09:27;;;;;;;4.15;1.52;;;0.80;99.90;;;;;;6648223;89;20256;-75
2021/04/06 18:19:27;;;;;;;3.37;1.80;;;0.80;99.90;;;;;;6643348;89;20244;-75
2021/04/06 18:29:28;;;;;;;6.43;2.12;;;0.90;99.90;;;;;;6641425;89;20206;-74
2021/04/06 18:39:28;;;;;;;7.22;3.65;;;1.10;99.90;;;;;;6649280;89;20307;-74
2021/04/06 18:49:29;;;;;;;5.68;2.75;;;1.00;99.90;;;;;;6646747;89;20247;-74
2021/04/06 18:59:30;;;;;;;3.75;2.33;;;1.10;99.90;;;;;;6647635;89;20212;-76
2021/04/06 19:09:30;;;;;;;7.78;2.80;;;1.00;99.90;;;;;;6642215;89;20208;-76
2021/04/06 19:19:31;;;;;;;6.20;3.10;;;0.90;99.90;;;;;;6643916;89;20616;-75
2021/04/06 19:29:31;;;;;;;3.87;2.47;;;1.10;99.90;;;;;;6645507;89;20205;-75
2021/04/06 19:39:32;;;;;;;8.73;3.15;;;1.10;99.90;;;;;;6640427;89;20522;-75
2021/04/06 19:49:33;;;;;;;7.53;3.40;;;1.10;99.90;;;;;;6645316;89;20228;-75
2021/04/06 19:59:33;;;;;;;12.37;4.53;;;1.00;99.90;;;;;;6642132;89;20928;-75
2021/04/06 20:09:34;;;;;;;9.15;4.95;;;0.90;99.90;;;;;;6642488;89;20200;-75
2021/04/06 20:19:35;;;;;;;8.50;3.95;;;0.80;99.90;;;;;;6646994;89;20180;-75
2021/04/06 20:29:36;;;;;;;5.53;2.97;;;0.70;99.90;;;;;;6648164;89;20200;-75
2021/04/06 20:39:37;;;;;;;7.97;3.58;;;0.90;99.90;;;;;;6649089;88;20981;-75
2021/04/06 20:49:37;;;;;;;8.25;3.20;;;0.50;99.90;;;;;;6642321;89;20206;-74
2021/04/06 20:59:38;;;;;;;5.65;3.00;;;0.30;99.90;;;;;;6650109;88;20750;-75
2021/04/06 21:09:38;;;;;;;6.00;2.95;;;0.40;99.90;;;;;;6637494;89;20199;-74
2021/04/06 21:19:39;;;;;;;6.60;2.40;;;0.40;99.90;;;;;;6633520;89;20723;-74
2021/04/06 21:29:39;;;;;;;5.93;2.10;;;0.50;99.90;;;;;;6650351;89;20196;-74
2021/04/06 21:39:40;;;;;;;5.75;2.28;;;0.50;99.90;;;;;;6645704;89;20196;-74
2021/04/06 21:49:41;;;;;;;6.60;2.65;;;0.50;99.90;;;;;;6648766;89;20917;-74
2021/04/06 21:59:41;;;;;;;7.10;3.20;;;0.50;99.90;;;;;;6655676;89;20189;-75
2021/04/06 22:09:42;;;;;;;5.70;2.60;;;0.50;99.90;;;;;;6651724;89;20326;-75
2021/04/06 22:19:43;;;;;;;9.27;2.75;;;0.50;99.90;;;;;;6651941;89;20204;-74
2021/04/06 22:29:44;;;;;;;11.20;3.55;;;0.50;99.90;;;;;;6648913;89;20210;-75
2021/04/06 22:39:44;;;;;;;5.80;2.78;;;0.30;99.90;;;;;;6643043;89;20537;-75
2021/04/06 22:49:46;;;;;;;6.78;2.83;;;0.40;99.90;;;;;;6644043;78;20368;-78
2021/04/06 22:59:47;;;;;;;8.25;3.33;;;0.50;99.90;;;;;;6657143;88;20172;-76
2021/04/06 23:09:48;;;;;;;8.35;3.30;;;0.50;99.90;;;;;;6645744;89;20654;-76
2021/04/06 23:19:48;;;;;;;9.73;3.00;;;0.40;99.90;;;;;;6665026;88;20226;-76
2021/04/06 23:29:49;;;;;;;8.93;2.92;;;0.40;99.90;;;;;;6646358;88;20202;-76
2021/04/06 23:39:49;;;;;;;7.37;2.92;;;0.40;99.90;;;;;;6645813;88;20211;-76
2021/04/06 23:49:50;;;;;;;6.97;3.05;;;0.30;99.90;;;;;;6667808;88;20225;-76
2021/04/06 23:59:51;;;;;;;10.23;3.53;;;0.20;99.90;;;;;;6713071;88;20528;-76
